Cuyahoga Falls, Ohio
Current Conditions -  °F | °C
As of 10:54 PM on Saturday 20 Dec 2014 (Local Time) from KAKR Reporting Station
Overcast Overcast  
Wind Chill: 29°   Ceiling: 3000
Heat Index: 29°   Visibility: 8mi
Dew Point: 22°   Wind: 0mph
Humidity: 75%   Direction: NA
Pressure: 30.26"   Gusts: NA
Location:  41.14°N, 81.48°W
Report Text: KAKR 210354Z AUTO 00000KT 8SM OVC030 M02/M06 A3026 RMK AO2 SLP259 T10171056 $
Loading
Personal Weather Stations






























Interactive Weather Map New forecast layout! Learn more

10-Day Weather Forecast

Advertisements
Track Severe Weather on mobile